Airfield :
LOGIN :

Register | Disclaimer

   EN    FR    IT 

 










Legend :    VFR   Marginal VFR   IFR   Intensive IFR   Very Intensive IFR
Visi :
Ceiling :
>= 8 km
>= 3000ft
5 to 8 km
1000 to 3000 ft
1500m to 5 km
500 to 1000 ft
800 to 1500m
200 to 500 ft
< 800m
< 200 ft
Symbols :   Thunderstorms  Fog  Heavy snow  Heavy precipitations  Wind > 20 kt
SIGMETs :     Misc.  Thunderstorms  Icing  Turbulence  Mountain Waves  Volcanic Ashes






- Airport Elevation : 53 ft
- IATA code : HAM


EDDH - Hamburg

CURRENT METAR :
  • 041350Z AUTO 06008KT 9999 BKN014 OVC023 OVC033 03/01 Q1021 TEMPO BKN015

EXPIRED METARs :
  • 041320Z AUTO 06009KT 9999 BKN015 BKN022 OVC031 03/00 Q1021 TEMPO BKN014
  • 041250Z AUTO 07008KT 040V100 9999 BKN015 BKN020 OVC030 03/00 Q1021 TEMPO BKN013
  • 041220Z AUTO 06006KT 030V090 9999 FEW020 OVC029 03/00 Q1021 NOSIG
  • 041150Z AUTO 05006KT 9999 OVC029 02/M00 Q1022 NOSIG
  • 041120Z AUTO 05008KT 020V080 9999 OVC030 02/M00 Q1022 NOSIG
  • 041050Z AUTO 06008KT 9999 OVC031 02/M01 Q1022 NOSIG

TAF TAF EDDH
Valid from the 04 at 12:00 until the 05 at 18:00 UTC


041100Z 0412/0518 07008KT 7000 OVC030
BECMG 0417/0420 OVC007
PROB30
TEMPO 0420/0502 SCT006 BKN020
TEMPO 0502/0518 3500 DZ BKN004



MET'MAP, your aeronautical weather chart ! - Copyright ORBIFLY December 2007 - Disclaimer

ORBIFLY MET'MAP TEAM :

Programming & Development : Alexandra Zaïnal
Original concept : Baudouin d'Aumeries
Technical & hardware support : Manuel Goepfert
Assistance : Marc-Olivier Méhu




SOURCES & CREDITS :

   NOAA